sensor_id;sensor_type;location;lat;lon;timestamp;P1;durP1;ratioP1;P2;durP2;ratioP2
81170;SDS011;70644;44.818;20.478;2023-11-22T00:01:07;7.78;;;6.90;;
81170;SDS011;70644;44.818;20.478;2023-11-22T00:03:33;7.45;;;6.72;;
81170;SDS011;70644;44.818;20.478;2023-11-22T00:06:00;8.23;;;7.35;;
81170;SDS011;70644;44.818;20.478;2023-11-22T00:10:55;7.13;;;6.32;;
81170;SDS011;70644;44.818;20.478;2023-11-22T00:13:21;7.78;;;6.97;;
81170;SDS011;70644;44.818;20.478;2023-11-22T00:15:47;7.50;;;6.68;;
81170;SDS011;70644;44.818;20.478;2023-11-22T00:18:15;7.50;;;6.40;;
81170;SDS011;70644;44.818;20.478;2023-11-22T00:20:41;7.15;;;6.45;;
81170;SDS011;70644;44.818;20.478;2023-11-22T00:23:07;7.00;;;5.80;;
81170;SDS011;70644;44.818;20.478;2023-11-22T00:25:34;7.40;;;6.40;;
81170;SDS011;70644;44.818;20.478;2023-11-22T00:28:00;7.45;;;6.55;;
81170;SDS011;70644;44.818;20.478;2023-11-22T00:30:26;6.90;;;6.20;;
81170;SDS011;70644;44.818;20.478;2023-11-22T00:32:52;7.03;;;6.32;;
81170;SDS011;70644;44.818;20.478;2023-11-22T00:35:18;7.03;;;6.32;;
81170;SDS011;70644;44.818;20.478;2023-11-22T00:37:45;6.70;;;6.00;;
81170;SDS011;70644;44.818;20.478;2023-11-22T00:40:11;7.22;;;6.53;;
81170;SDS011;70644;44.818;20.478;2023-11-22T00:42:38;6.88;;;6.18;;
81170;SDS011;70644;44.818;20.478;2023-11-22T00:45:06;7.07;;;6.38;;
81170;SDS011;70644;44.818;20.478;2023-11-22T00:47:33;7.15;;;6.45;;
81170;SDS011;70644;44.818;20.478;2023-11-22T00:49:59;7.15;;;5.85;;
81170;SDS011;70644;44.818;20.478;2023-11-22T00:52:26;7.07;;;6.05;;
81170;SDS011;70644;44.818;20.478;2023-11-22T00:54:52;7.25;;;6.15;;
81170;SDS011;70644;44.818;20.478;2023-11-22T00:57:18;6.50;;;5.65;;
81170;SDS011;70644;44.818;20.478;2023-11-22T00:59:44;6.72;;;5.22;;
81170;SDS011;70644;44.818;20.478;2023-11-22T01:02:10;6.47;;;5.78;;
81170;SDS011;70644;44.818;20.478;2023-11-22T01:04:36;7.60;;;6.18;;
81170;SDS011;70644;44.818;20.478;2023-11-22T01:07:03;6.65;;;5.95;;
81170;SDS011;70644;44.818;20.478;2023-11-22T01:09:32;6.35;;;5.60;;
81170;SDS011;70644;44.818;20.478;2023-11-22T01:11:59;6.47;;;5.88;;
81170;SDS011;70644;44.818;20.478;2023-11-22T01:14:25;6.43;;;5.82;;
81170;SDS011;70644;44.818;20.478;2023-11-22T01:16:51;6.38;;;5.78;;
81170;SDS011;70644;44.818;20.478;2023-11-22T01:19:17;6.82;;;5.65;;
81170;SDS011;70644;44.818;20.478;2023-11-22T01:21:43;6.15;;;5.55;;
81170;SDS011;70644;44.818;20.478;2023-11-22T01:24:10;6.05;;;5.45;;
81170;SDS011;70644;44.818;20.478;2023-11-22T01:26:36;6.10;;;5.50;;
81170;SDS011;70644;44.818;20.478;2023-11-22T01:29:03;6.40;;;5.70;;
81170;SDS011;70644;44.818;20.478;2023-11-22T01:31:29;6.80;;;5.80;;
81170;SDS011;70644;44.818;20.478;2023-11-22T01:33:56;6.65;;;5.95;;
81170;SDS011;70644;44.818;20.478;2023-11-22T01:36:23;5.72;;;5.10;;
81170;SDS011;70644;44.818;20.478;2023-11-22T01:38:50;5.80;;;5.18;;
81170;SDS011;70644;44.818;20.478;2023-11-22T01:41:17;6.18;;;5.40;;
81170;SDS011;70644;44.818;20.478;2023-11-22T01:43:44;6.45;;;5.75;;
81170;SDS011;70644;44.818;20.478;2023-11-22T01:46:24;6.45;;;5.80;;
81170;SDS011;70644;44.818;20.478;2023-11-22T01:48:51;6.32;;;5.38;;
81170;SDS011;70644;44.818;20.478;2023-11-22T01:51:19;6.05;;;5.22;;
81170;SDS011;70644;44.818;20.478;2023-11-22T01:53:46;6.10;;;5.35;;
81170;SDS011;70644;44.818;20.478;2023-11-22T01:56:12;5.97;;;5.40;;
81170;SDS011;70644;44.818;20.478;2023-11-22T01:58:39;5.53;;;5.03;;
81170;SDS011;70644;44.818;20.478;2023-11-22T02:01:05;5.75;;;5.10;;
81170;SDS011;70644;44.818;20.478;2023-11-22T02:03:31;5.93;;;5.32;;
81170;SDS011;70644;44.818;20.478;2023-11-22T02:05:58;5.72;;;5.18;;
81170;SDS011;70644;44.818;20.478;2023-11-22T02:08:25;5.20;;;4.70;;
81170;SDS011;70644;44.818;20.478;2023-11-22T02:10:59;6.00;;;5.40;;
81170;SDS011;70644;44.818;20.478;2023-11-22T02:13:28;5.45;;;4.85;;
81170;SDS011;70644;44.818;20.478;2023-11-22T02:15:54;5.57;;;5.00;;
81170;SDS011;70644;44.818;20.478;2023-11-22T02:18:21;6.22;;;5.38;;
81170;SDS011;70644;44.818;20.478;2023-11-22T02:20:48;5.65;;;5.15;;
81170;SDS011;70644;44.818;20.478;2023-11-22T02:23:14;6.07;;;5.47;;
81170;SDS011;70644;44.818;20.478;2023-11-22T02:25:40;5.68;;;5.13;;
81170;SDS011;70644;44.818;20.478;2023-11-22T02:28:06;6.25;;;5.25;;
81170;SDS011;70644;44.818;20.478;2023-11-22T02:30:33;5.93;;;5.32;;
81170;SDS011;70644;44.818;20.478;2023-11-22T02:32:59;6.00;;;5.40;;
81170;SDS011;70644;44.818;20.478;2023-11-22T02:35:26;5.80;;;5.07;;
81170;SDS011;70644;44.818;20.478;2023-11-22T02:37:52;5.45;;;4.95;;
81170;SDS011;70644;44.818;20.478;2023-11-22T02:40:19;6.13;;;4.88;;
81170;SDS011;70644;44.818;20.478;2023-11-22T02:42:46;5.40;;;4.90;;
81170;SDS011;70644;44.818;20.478;2023-11-22T02:45:13;5.65;;;5.10;;
81170;SDS011;70644;44.818;20.478;2023-11-22T02:47:39;5.60;;;5.03;;
81170;SDS011;70644;44.818;20.478;2023-11-22T02:50:06;5.10;;;4.60;;
81170;SDS011;70644;44.818;20.478;2023-11-22T02:52:32;5.25;;;4.75;;
81170;SDS011;70644;44.818;20.478;2023-11-22T02:54:58;5.07;;;4.57;;
81170;SDS011;70644;44.818;20.478;2023-11-22T02:57:24;6.60;;;5.03;;
81170;SDS011;70644;44.818;20.478;2023-11-22T02:59:51;6.20;;;4.90;;
81170;SDS011;70644;44.818;20.478;2023-11-22T03:02:17;5.30;;;4.57;;
81170;SDS011;70644;44.818;20.478;2023-11-22T03:04:43;5.47;;;4.82;;
81170;SDS011;70644;44.818;20.478;2023-11-22T03:07:10;5.93;;;4.72;;
81170;SDS011;70644;44.818;20.478;2023-11-22T03:09:36;5.57;;;4.80;;
81170;SDS011;70644;44.818;20.478;2023-11-22T03:12:02;4.68;;;4.25;;
81170;SDS011;70644;44.818;20.478;2023-11-22T03:14:28;5.07;;;4.47;;
81170;SDS011;70644;44.818;20.478;2023-11-22T03:16:57;5.00;;;4.50;;
81170;SDS011;70644;44.818;20.478;2023-11-22T03:19:23;5.00;;;4.50;;
81170;SDS011;70644;44.818;20.478;2023-11-22T03:21:49;5.43;;;4.50;;
81170;SDS011;70644;44.818;20.478;2023-11-22T03:24:16;5.18;;;4.68;;
81170;SDS011;70644;44.818;20.478;2023-11-22T03:26:42;5.82;;;4.75;;
81170;SDS011;70644;44.818;20.478;2023-11-22T03:29:10;5.95;;;4.30;;
81170;SDS011;70644;44.818;20.478;2023-11-22T03:31:36;5.00;;;4.47;;
81170;SDS011;70644;44.818;20.478;2023-11-22T03:34:04;4.93;;;4.15;;
81170;SDS011;70644;44.818;20.478;2023-11-22T03:36:30;4.82;;;4.25;;
81170;SDS011;70644;44.818;20.478;2023-11-22T03:38:56;4.82;;;4.40;;
81170;SDS011;70644;44.818;20.478;2023-11-22T03:41:22;4.60;;;4.07;;
81170;SDS011;70644;44.818;20.478;2023-11-22T03:43:48;5.13;;;4.63;;
81170;SDS011;70644;44.818;20.478;2023-11-22T03:46:14;5.13;;;4.60;;
81170;SDS011;70644;44.818;20.478;2023-11-22T03:48:40;5.28;;;4.78;;
81170;SDS011;70644;44.818;20.478;2023-11-22T03:51:06;5.20;;;4.57;;
81170;SDS011;70644;44.818;20.478;2023-11-22T03:53:32;4.05;;;3.35;;
81170;SDS011;70644;44.818;20.478;2023-11-22T03:55:58;4.60;;;4.00;;
81170;SDS011;70644;44.818;20.478;2023-11-22T03:58:24;5.15;;;4.65;;
81170;SDS011;70644;44.818;20.478;2023-11-22T04:00:51;5.35;;;4.32;;
81170;SDS011;70644;44.818;20.478;2023-11-22T04:03:17;5.00;;;4.18;;
81170;SDS011;70644;44.818;20.478;2023-11-22T04:05:44;4.53;;;4.10;;
81170;SDS011;70644;44.818;20.478;2023-11-22T04:08:10;4.20;;;3.80;;
81170;SDS011;70644;44.818;20.478;2023-11-22T04:10:36;4.63;;;4.20;;
81170;SDS011;70644;44.818;20.478;2023-11-22T04:13:02;4.90;;;4.40;;
81170;SDS011;70644;44.818;20.478;2023-11-22T04:15:29;5.53;;;4.22;;
81170;SDS011;70644;44.818;20.478;2023-11-22T04:17:55;5.47;;;3.67;;
81170;SDS011;70644;44.818;20.478;2023-11-22T04:20:22;5.68;;;4.38;;
81170;SDS011;70644;44.818;20.478;2023-11-22T04:22:48;4.47;;;4.03;;
81170;SDS011;70644;44.818;20.478;2023-11-22T04:25:14;5.28;;;4.43;;
81170;SDS011;70644;44.818;20.478;2023-11-22T04:27:40;4.30;;;3.83;;
81170;SDS011;70644;44.818;20.478;2023-11-22T04:30:07;4.57;;;4.10;;
81170;SDS011;70644;44.818;20.478;2023-11-22T04:32:34;4.63;;;3.65;;
81170;SDS011;70644;44.818;20.478;2023-11-22T04:35:01;4.70;;;4.13;;
81170;SDS011;70644;44.818;20.478;2023-11-22T04:37:29;4.50;;;3.97;;
81170;SDS011;70644;44.818;20.478;2023-11-22T04:39:57;4.68;;;4.22;;
81170;SDS011;70644;44.818;20.478;2023-11-22T04:42:23;4.32;;;3.85;;
81170;SDS011;70644;44.818;20.478;2023-11-22T04:44:49;4.72;;;4.03;;
81170;SDS011;70644;44.818;20.478;2023-11-22T04:47:15;4.65;;;4.22;;
81170;SDS011;70644;44.818;20.478;2023-11-22T04:49:41;5.10;;;4.60;;
81170;SDS011;70644;44.818;20.478;2023-11-22T04:52:08;4.60;;;4.13;;
81170;SDS011;70644;44.818;20.478;2023-11-22T04:54:34;4.70;;;4.30;;
81170;SDS011;70644;44.818;20.478;2023-11-22T04:57:00;4.70;;;4.20;;
81170;SDS011;70644;44.818;20.478;2023-11-22T04:59:26;4.30;;;3.72;;
81170;SDS011;70644;44.818;20.478;2023-11-22T05:01:52;4.43;;;4.00;;
81170;SDS011;70644;44.818;20.478;2023-11-22T05:04:18;4.85;;;4.22;;
81170;SDS011;70644;44.818;20.478;2023-11-22T05:06:44;4.57;;;3.97;;
81170;SDS011;70644;44.818;20.478;2023-11-22T05:09:11;5.13;;;4.00;;
81170;SDS011;70644;44.818;20.478;2023-11-22T05:11:38;4.80;;;3.90;;
81170;SDS011;70644;44.818;20.478;2023-11-22T05:14:06;4.43;;;4.03;;
81170;SDS011;70644;44.818;20.478;2023-11-22T05:16:33;4.82;;;3.83;;
81170;SDS011;70644;44.818;20.478;2023-11-22T05:18:59;4.53;;;4.13;;
81170;SDS011;70644;44.818;20.478;2023-11-22T05:21:25;4.53;;;3.78;;
81170;SDS011;70644;44.818;20.478;2023-11-22T05:23:51;4.60;;;4.00;;
81170;SDS011;70644;44.818;20.478;2023-11-22T05:26:19;4.13;;;3.65;;
81170;SDS011;70644;44.818;20.478;2023-11-22T05:28:46;5.22;;;4.72;;
81170;SDS011;70644;44.818;20.478;2023-11-22T05:31:12;4.50;;;4.00;;
81170;SDS011;70644;44.818;20.478;2023-11-22T05:33:39;4.57;;;4.10;;
81170;SDS011;70644;44.818;20.478;2023-11-22T05:36:05;4.90;;;3.97;;
81170;SDS011;70644;44.818;20.478;2023-11-22T05:38:31;4.47;;;4.05;;
81170;SDS011;70644;44.818;20.478;2023-11-22T05:41:02;4.45;;;3.90;;
81170;SDS011;70644;44.818;20.478;2023-11-22T05:43:28;4.72;;;4.22;;
81170;SDS011;70644;44.818;20.478;2023-11-22T05:45:54;4.82;;;3.88;;
81170;SDS011;70644;44.818;20.478;2023-11-22T05:48:20;4.88;;;4.30;;
81170;SDS011;70644;44.818;20.478;2023-11-22T05:50:47;4.05;;;3.35;;
81170;SDS011;70644;44.818;20.478;2023-11-22T05:53:13;4.28;;;3.60;;
81170;SDS011;70644;44.818;20.478;2023-11-22T05:55:47;4.70;;;4.20;;
81170;SDS011;70644;44.818;20.478;2023-11-22T05:58:17;5.20;;;4.22;;
81170;SDS011;70644;44.818;20.478;2023-11-22T06:00:46;4.20;;;3.80;;
81170;SDS011;70644;44.818;20.478;2023-11-22T06:03:15;4.20;;;3.75;;
81170;SDS011;70644;44.818;20.478;2023-11-22T06:05:41;3.92;;;3.53;;
81170;SDS011;70644;44.818;20.478;2023-11-22T06:08:07;4.95;;;3.90;;
81170;SDS011;70644;44.818;20.478;2023-11-22T06:10:36;4.53;;;3.65;;
81170;SDS011;70644;44.818;20.478;2023-11-22T06:13:06;4.55;;;4.13;;
81170;SDS011;70644;44.818;20.478;2023-11-22T06:15:33;5.03;;;4.20;;
81170;SDS011;70644;44.818;20.478;2023-11-22T06:17:59;4.03;;;3.63;;
81170;SDS011;70644;44.818;20.478;2023-11-22T06:20:25;5.80;;;4.13;;
81170;SDS011;70644;44.818;20.478;2023-11-22T06:22:52;4.85;;;3.90;;
81170;SDS011;70644;44.818;20.478;2023-11-22T06:25:18;4.90;;;4.00;;
81170;SDS011;70644;44.818;20.478;2023-11-22T06:27:44;4.45;;;4.00;;
81170;SDS011;70644;44.818;20.478;2023-11-22T06:30:10;4.32;;;3.90;;
81170;SDS011;70644;44.818;20.478;2023-11-22T06:32:36;4.13;;;3.72;;
81170;SDS011;70644;44.818;20.478;2023-11-22T06:35:02;4.70;;;4.20;;
81170;SDS011;70644;44.818;20.478;2023-11-22T06:37:28;4.43;;;4.03;;
81170;SDS011;70644;44.818;20.478;2023-11-22T06:39:55;4.43;;;4.00;;
81170;SDS011;70644;44.818;20.478;2023-11-22T06:42:22;4.57;;;4.18;;
81170;SDS011;70644;44.818;20.478;2023-11-22T06:44:48;5.30;;;4.18;;
81170;SDS011;70644;44.818;20.478;2023-11-22T06:47:15;4.00;;;3.60;;
81170;SDS011;70644;44.818;20.478;2023-11-22T06:49:42;4.47;;;3.80;;
81170;SDS011;70644;44.818;20.478;2023-11-22T06:52:09;4.80;;;4.30;;
81170;SDS011;70644;44.818;20.478;2023-11-22T06:54:35;4.40;;;3.90;;
81170;SDS011;70644;44.818;20.478;2023-11-22T06:57:02;3.90;;;3.50;;
81170;SDS011;70644;44.818;20.478;2023-11-22T06:59:28;4.50;;;4.00;;
81170;SDS011;70644;44.818;20.478;2023-11-22T07:01:54;4.25;;;3.75;;
81170;SDS011;70644;44.818;20.478;2023-11-22T07:04:23;4.10;;;3.70;;
81170;SDS011;70644;44.818;20.478;2023-11-22T07:06:49;5.07;;;3.78;;
81170;SDS011;70644;44.818;20.478;2023-11-22T07:09:15;4.40;;;3.97;;
81170;SDS011;70644;44.818;20.478;2023-11-22T07:11:41;5.32;;;4.05;;
81170;SDS011;70644;44.818;20.478;2023-11-22T07:14:09;4.57;;;4.18;;
81170;SDS011;70644;44.818;20.478;2023-11-22T07:16:35;4.85;;;3.70;;
81170;SDS011;70644;44.818;20.478;2023-11-22T07:19:02;4.43;;;4.03;;
81170;SDS011;70644;44.818;20.478;2023-11-22T07:21:31;4.13;;;3.72;;
81170;SDS011;70644;44.818;20.478;2023-11-22T07:23:58;4.95;;;4.03;;
81170;SDS011;70644;44.818;20.478;2023-11-22T07:26:27;4.43;;;3.97;;
81170;SDS011;70644;44.818;20.478;2023-11-22T07:28:53;4.65;;;4.20;;
81170;SDS011;70644;44.818;20.478;2023-11-22T07:31:19;4.55;;;4.15;;
81170;SDS011;70644;44.818;20.478;2023-11-22T07:33:46;4.25;;;3.83;;
81170;SDS011;70644;44.818;20.478;2023-11-22T07:36:12;4.60;;;3.95;;
81170;SDS011;70644;44.818;20.478;2023-11-22T07:38:42;7.05;;;5.57;;
81170;SDS011;70644;44.818;20.478;2023-11-22T07:41:08;111.63;;;25.35;;
81170;SDS011;70644;44.818;20.478;2023-11-22T07:48:46;85.13;;;21.52;;
81170;SDS011;70644;44.818;20.478;2023-11-22T07:51:14;75.95;;;21.90;;
81170;SDS011;70644;44.818;20.478;2023-11-22T07:53:43;76.07;;;20.85;;
81170;SDS011;70644;44.818;20.478;2023-11-22T07:56:09;70.95;;;20.80;;
81170;SDS011;70644;44.818;20.478;2023-11-22T07:58:37;66.72;;;20.55;;
81170;SDS011;70644;44.818;20.478;2023-11-22T08:01:03;65.72;;;20.58;;
81170;SDS011;70644;44.818;20.478;2023-11-22T08:03:29;59.00;;;18.65;;
81170;SDS011;70644;44.818;20.478;2023-11-22T08:05:55;61.55;;;19.55;;
81170;SDS011;70644;44.818;20.478;2023-11-22T08:08:22;56.42;;;18.75;;
81170;SDS011;70644;44.818;20.478;2023-11-22T08:10:48;56.42;;;17.33;;
81170;SDS011;70644;44.818;20.478;2023-11-22T08:13:18;45.70;;;15.65;;
81170;SDS011;70644;44.818;20.478;2023-11-22T08:15:50;47.33;;;16.73;;
81170;SDS011;70644;44.818;20.478;2023-11-22T08:18:18;42.88;;;15.98;;
81170;SDS011;70644;44.818;20.478;2023-11-22T08:20:44;51.67;;;14.35;;
81170;SDS011;70644;44.818;20.478;2023-11-22T08:23:10;42.70;;;15.48;;
81170;SDS011;70644;44.818;20.478;2023-11-22T08:25:38;40.60;;;16.30;;
81170;SDS011;70644;44.818;20.478;2023-11-22T08:28:04;40.80;;;14.52;;
81170;SDS011;70644;44.818;20.478;2023-11-22T08:30:34;42.80;;;15.48;;
81170;SDS011;70644;44.818;20.478;2023-11-22T08:33:01;37.30;;;14.77;;
81170;SDS011;70644;44.818;20.478;2023-11-22T08:35:27;41.08;;;14.48;;
81170;SDS011;70644;44.818;20.478;2023-11-22T08:37:53;39.47;;;15.52;;
81170;SDS011;70644;44.818;20.478;2023-11-22T08:40:22;34.38;;;15.25;;
81170;SDS011;70644;44.818;20.478;2023-11-22T08:42:49;32.35;;;15.10;;
81170;SDS011;70644;44.818;20.478;2023-11-22T08:45:15;31.38;;;14.57;;
81170;SDS011;70644;44.818;20.478;2023-11-22T08:47:41;31.88;;;14.02;;
81170;SDS011;70644;44.818;20.478;2023-11-22T08:50:08;31.52;;;14.27;;
81170;SDS011;70644;44.818;20.478;2023-11-22T08:52:40;35.53;;;13.95;;
81170;SDS011;70644;44.818;20.478;2023-11-22T08:55:06;29.30;;;15.15;;
81170;SDS011;70644;44.818;20.478;2023-11-22T08:57:36;30.80;;;13.57;;
81170;SDS011;70644;44.818;20.478;2023-11-22T09:00:03;30.33;;;14.57;;
81170;SDS011;70644;44.818;20.478;2023-11-22T09:02:34;32.60;;;13.77;;
81170;SDS011;70644;44.818;20.478;2023-11-22T09:05:01;28.02;;;13.70;;
81170;SDS011;70644;44.818;20.478;2023-11-22T09:07:31;32.53;;;14.07;;
81170;SDS011;70644;44.818;20.478;2023-11-22T09:09:59;30.48;;;13.70;;
81170;SDS011;70644;44.818;20.478;2023-11-22T09:12:25;31.33;;;13.82;;
81170;SDS011;70644;44.818;20.478;2023-11-22T09:14:52;30.98;;;13.75;;
81170;SDS011;70644;44.818;20.478;2023-11-22T09:17:18;28.75;;;12.98;;
81170;SDS011;70644;44.818;20.478;2023-11-22T09:19:45;27.30;;;12.30;;
81170;SDS011;70644;44.818;20.478;2023-11-22T09:22:12;24.40;;;12.60;;
81170;SDS011;70644;44.818;20.478;2023-11-22T09:24:40;24.25;;;12.30;;
81170;SDS011;70644;44.818;20.478;2023-11-22T09:27:06;24.85;;;13.27;;
81170;SDS011;70644;44.818;20.478;2023-11-22T09:29:35;21.90;;;12.20;;
81170;SDS011;70644;44.818;20.478;2023-11-22T09:32:01;24.13;;;13.32;;
81170;SDS011;70644;44.818;20.478;2023-11-22T09:34:28;22.77;;;11.07;;
81170;SDS011;70644;44.818;20.478;2023-11-22T09:36:55;21.27;;;12.00;;
81170;SDS011;70644;44.818;20.478;2023-11-22T09:39:21;20.02;;;11.45;;
81170;SDS011;70644;44.818;20.478;2023-11-22T09:41:50;21.88;;;11.48;;
81170;SDS011;70644;44.818;20.478;2023-11-22T09:44:17;25.60;;;11.95;;
81170;SDS011;70644;44.818;20.478;2023-11-22T09:46:43;24.00;;;11.45;;
81170;SDS011;70644;44.818;20.478;2023-11-22T09:49:10;23.15;;;11.57;;
81170;SDS011;70644;44.818;20.478;2023-11-22T09:51:40;25.17;;;12.52;;
81170;SDS011;70644;44.818;20.478;2023-11-22T09:54:08;21.77;;;11.00;;
81170;SDS011;70644;44.818;20.478;2023-11-22T09:56:39;19.90;;;11.40;;
81170;SDS011;70644;44.818;20.478;2023-11-22T09:59:06;20.33;;;10.80;;
81170;SDS011;70644;44.818;20.478;2023-11-22T10:01:32;24.17;;;10.90;;
81170;SDS011;70644;44.818;20.478;2023-11-22T10:04:01;19.77;;;11.30;;
81170;SDS011;70644;44.818;20.478;2023-11-22T10:08:59;18.55;;;11.20;;
81170;SDS011;70644;44.818;20.478;2023-11-22T10:11:25;19.83;;;10.57;;
81170;SDS011;70644;44.818;20.478;2023-11-22T10:13:53;18.75;;;10.95;;
81170;SDS011;70644;44.818;20.478;2023-11-22T10:16:19;21.20;;;10.98;;
81170;SDS011;70644;44.818;20.478;2023-11-22T10:18:47;19.92;;;11.10;;
81170;SDS011;70644;44.818;20.478;2023-11-22T10:21:21;17.42;;;10.32;;
81170;SDS011;70644;44.818;20.478;2023-11-22T10:23:47;21.13;;;10.65;;
81170;SDS011;70644;44.818;20.478;2023-11-22T10:28:42;15.52;;;9.88;;
81170;SDS011;70644;44.818;20.478;2023-11-22T10:31:09;15.50;;;9.93;;
81170;SDS011;70644;44.818;20.478;2023-11-22T10:33:44;20.05;;;10.88;;
81170;SDS011;70644;44.818;20.478;2023-11-22T10:36:11;17.05;;;10.43;;
81170;SDS011;70644;44.818;20.478;2023-11-22T10:38:37;16.05;;;10.93;;
81170;SDS011;70644;44.818;20.478;2023-11-22T10:41:07;17.38;;;10.10;;
81170;SDS011;70644;44.818;20.478;2023-11-22T10:43:34;18.17;;;10.32;;
81170;SDS011;70644;44.818;20.478;2023-11-22T10:46:03;15.90;;;10.20;;
81170;SDS011;70644;44.818;20.478;2023-11-22T10:48:30;16.58;;;10.07;;
81170;SDS011;70644;44.818;20.478;2023-11-22T10:51:00;16.77;;;10.30;;
81170;SDS011;70644;44.818;20.478;2023-11-22T10:53:34;13.70;;;9.35;;
81170;SDS011;70644;44.818;20.478;2023-11-22T10:58:56;14.73;;;9.73;;
81170;SDS011;70644;44.818;20.478;2023-11-22T11:01:24;16.58;;;10.57;;
81170;SDS011;70644;44.818;20.478;2023-11-22T11:04:02;12.98;;;9.75;;
81170;SDS011;70644;44.818;20.478;2023-11-22T11:06:33;16.15;;;10.27;;
81170;SDS011;70644;44.818;20.478;2023-11-22T11:09:00;16.60;;;9.75;;
81170;SDS011;70644;44.818;20.478;2023-11-22T11:11:29;17.52;;;10.18;;
81170;SDS011;70644;44.818;20.478;2023-11-22T11:13:56;17.27;;;10.55;;
81170;SDS011;70644;44.818;20.478;2023-11-22T11:16:23;16.92;;;9.90;;
81170;SDS011;70644;44.818;20.478;2023-11-22T11:18:49;17.98;;;10.13;;
81170;SDS011;70644;44.818;20.478;2023-11-22T11:21:16;13.68;;;9.77;;
81170;SDS011;70644;44.818;20.478;2023-11-22T11:23:44;14.77;;;10.10;;
81170;SDS011;70644;44.818;20.478;2023-11-22T11:26:17;14.32;;;9.95;;
81170;SDS011;70644;44.818;20.478;2023-11-22T11:28:45;17.23;;;10.18;;
81170;SDS011;70644;44.818;20.478;2023-11-22T11:31:21;13.38;;;9.30;;
81170;SDS011;70644;44.818;20.478;2023-11-22T11:38:50;13.00;;;9.93;;
81170;SDS011;70644;44.818;20.478;2023-11-22T11:41:16;15.70;;;9.35;;
81170;SDS011;70644;44.818;20.478;2023-11-22T11:43:46;15.43;;;10.30;;
81170;SDS011;70644;44.818;20.478;2023-11-22T11:46:16;15.60;;;9.55;;
81170;SDS011;70644;44.818;20.478;2023-11-22T11:48:49;13.88;;;9.38;;
81170;SDS011;70644;44.818;20.478;2023-11-22T11:51:20;13.98;;;9.02;;
81170;SDS011;70644;44.818;20.478;2023-11-22T11:53:46;13.65;;;9.90;;
81170;SDS011;70644;44.818;20.478;2023-11-22T11:56:12;12.07;;;9.18;;
81170;SDS011;70644;44.818;20.478;2023-11-22T11:58:40;14.63;;;8.80;;
81170;SDS011;70644;44.818;20.478;2023-11-22T12:01:06;13.07;;;9.65;;
81170;SDS011;70644;44.818;20.478;2023-11-22T12:03:33;12.13;;;9.07;;
81170;SDS011;70644;44.818;20.478;2023-11-22T12:05:59;12.82;;;9.82;;
81170;SDS011;70644;44.818;20.478;2023-11-22T12:08:25;11.43;;;8.95;;
81170;SDS011;70644;44.818;20.478;2023-11-22T12:10:55;13.18;;;9.15;;
81170;SDS011;70644;44.818;20.478;2023-11-22T12:13:23;11.05;;;8.20;;
81170;SDS011;70644;44.818;20.478;2023-11-22T12:15:51;14.77;;;9.02;;
81170;SDS011;70644;44.818;20.478;2023-11-22T12:18:18;13.15;;;8.70;;
81170;SDS011;70644;44.818;20.478;2023-11-22T12:20:57;13.13;;;8.82;;
81170;SDS011;70644;44.818;20.478;2023-11-22T12:23:24;12.23;;;8.88;;
81170;SDS011;70644;44.818;20.478;2023-11-22T12:25:54;12.52;;;8.48;;
81170;SDS011;70644;44.818;20.478;2023-11-22T12:28:26;13.52;;;8.80;;
81170;SDS011;70644;44.818;20.478;2023-11-22T12:30:52;15.00;;;8.85;;
81170;SDS011;70644;44.818;20.478;2023-11-22T12:33:18;12.38;;;8.32;;
81170;SDS011;70644;44.818;20.478;2023-11-22T12:35:47;12.88;;;9.23;;
81170;SDS011;70644;44.818;20.478;2023-11-22T12:38:14;13.30;;;9.02;;
81170;SDS011;70644;44.818;20.478;2023-11-22T12:40:45;13.07;;;9.30;;
81170;SDS011;70644;44.818;20.478;2023-11-22T12:43:14;12.65;;;8.77;;
81170;SDS011;70644;44.818;20.478;2023-11-22T12:45:40;12.48;;;8.07;;
81170;SDS011;70644;44.818;20.478;2023-11-22T12:48:26;10.90;;;8.77;;
81170;SDS011;70644;44.818;20.478;2023-11-22T12:50:55;11.13;;;8.60;;
81170;SDS011;70644;44.818;20.478;2023-11-22T12:53:21;11.35;;;9.02;;
81170;SDS011;70644;44.818;20.478;2023-11-22T12:55:48;15.32;;;8.93;;
81170;SDS011;70644;44.818;20.478;2023-11-22T12:58:15;11.27;;;8.05;;
81170;SDS011;70644;44.818;20.478;2023-11-22T13:00:41;10.85;;;7.93;;
81170;SDS011;70644;44.818;20.478;2023-11-22T13:03:08;9.60;;;8.05;;
81170;SDS011;70644;44.818;20.478;2023-11-22T13:05:39;11.63;;;8.45;;
81170;SDS011;70644;44.818;20.478;2023-11-22T13:08:08;10.57;;;8.10;;
81170;SDS011;70644;44.818;20.478;2023-11-22T13:10:44;11.55;;;8.45;;
81170;SDS011;70644;44.818;20.478;2023-11-22T13:13:12;10.50;;;8.52;;
81170;SDS011;70644;44.818;20.478;2023-11-22T13:15:39;11.70;;;8.82;;
81170;SDS011;70644;44.818;20.478;2023-11-22T13:18:06;11.65;;;8.63;;
81170;SDS011;70644;44.818;20.478;2023-11-22T13:20:33;13.07;;;9.15;;
81170;SDS011;70644;44.818;20.478;2023-11-22T13:23:00;9.40;;;7.97;;
81170;SDS011;70644;44.818;20.478;2023-11-22T13:25:27;10.00;;;8.70;;
81170;SDS011;70644;44.818;20.478;2023-11-22T13:27:53;10.65;;;8.15;;
81170;SDS011;70644;44.818;20.478;2023-11-22T13:30:21;9.43;;;7.75;;
81170;SDS011;70644;44.818;20.478;2023-11-22T13:32:49;10.73;;;7.90;;
81170;SDS011;70644;44.818;20.478;2023-11-22T13:35:15;9.82;;;7.50;;
81170;SDS011;70644;44.818;20.478;2023-11-22T13:37:45;10.50;;;8.45;;
81170;SDS011;70644;44.818;20.478;2023-11-22T13:40:13;10.77;;;8.23;;
81170;SDS011;70644;44.818;20.478;2023-11-22T13:42:42;10.57;;;8.63;;
81170;SDS011;70644;44.818;20.478;2023-11-22T13:45:09;10.40;;;8.57;;
81170;SDS011;70644;44.818;20.478;2023-11-22T13:47:36;9.63;;;8.20;;
81170;SDS011;70644;44.818;20.478;2023-11-22T13:50:02;10.80;;;8.38;;
81170;SDS011;70644;44.818;20.478;2023-11-22T13:52:29;11.23;;;9.32;;
81170;SDS011;70644;44.818;20.478;2023-11-22T13:54:55;9.27;;;8.13;;
81170;SDS011;70644;44.818;20.478;2023-11-22T13:57:22;11.75;;;8.15;;
81170;SDS011;70644;44.818;20.478;2023-11-22T13:59:48;10.70;;;8.32;;
81170;SDS011;70644;44.818;20.478;2023-11-22T14:02:15;11.63;;;9.00;;
81170;SDS011;70644;44.818;20.478;2023-11-22T14:04:41;14.25;;;9.93;;
81170;SDS011;70644;44.818;20.478;2023-11-22T14:07:07;13.05;;;10.23;;
81170;SDS011;70644;44.818;20.478;2023-11-22T14:09:33;12.13;;;9.57;;
81170;SDS011;70644;44.818;20.478;2023-11-22T14:12:02;11.10;;;9.20;;
81170;SDS011;70644;44.818;20.478;2023-11-22T14:14:28;12.45;;;8.70;;
81170;SDS011;70644;44.818;20.478;2023-11-22T14:16:55;11.68;;;8.85;;
81170;SDS011;70644;44.818;20.478;2023-11-22T14:19:21;10.50;;;8.48;;
81170;SDS011;70644;44.818;20.478;2023-11-22T14:21:47;10.40;;;8.73;;
81170;SDS011;70644;44.818;20.478;2023-11-22T14:24:13;11.68;;;8.73;;
81170;SDS011;70644;44.818;20.478;2023-11-22T14:26:39;10.45;;;8.80;;
81170;SDS011;70644;44.818;20.478;2023-11-22T14:29:05;11.45;;;9.50;;
81170;SDS011;70644;44.818;20.478;2023-11-22T14:31:32;10.25;;;8.60;;
81170;SDS011;70644;44.818;20.478;2023-11-22T14:33:58;13.95;;;9.10;;
81170;SDS011;70644;44.818;20.478;2023-11-22T14:36:24;9.75;;;8.75;;
81170;SDS011;70644;44.818;20.478;2023-11-22T14:38:51;11.90;;;9.38;;
81170;SDS011;70644;44.818;20.478;2023-11-22T14:41:21;13.60;;;9.32;;
81170;SDS011;70644;44.818;20.478;2023-11-22T14:43:48;12.80;;;10.02;;
81170;SDS011;70644;44.818;20.478;2023-11-22T14:46:14;12.85;;;10.35;;